sensor_id;sensor_type;location;lat;lon;timestamp;pressure;altitude;pressure_sealevel;temperature;humidity
36798;BME280;22748;8.426;99.512;2023-07-24T00:02:40;100637.09;;;28.70;67.98
36798;BME280;22748;8.426;99.512;2023-07-24T00:05:09;100641.63;;;28.70;68.00
36798;BME280;22748;8.426;99.512;2023-07-24T00:07:43;100643.72;;;28.68;68.47
36798;BME280;22748;8.426;99.512;2023-07-24T00:10:15;100655.66;;;28.72;68.32
36798;BME280;22748;8.426;99.512;2023-07-24T00:12:51;100655.06;;;28.70;68.54
36798;BME280;22748;8.426;99.512;2023-07-24T00:15:21;100661.03;;;28.72;68.52
36798;BME280;22748;8.426;99.512;2023-07-24T00:17:55;100675.09;;;28.74;68.93
36798;BME280;22748;8.426;99.512;2023-07-24T00:20:30;100669.72;;;28.74;68.67
36798;BME280;22748;8.426;99.512;2023-07-24T00:23:06;100666.44;;;28.72;68.93
36798;BME280;22748;8.426;99.512;2023-07-24T00:25:54;100675.72;;;28.69;69.47
36798;BME280;22748;8.426;99.512;2023-07-24T00:28:23;100673.47;;;28.73;69.40
36798;BME280;22748;8.426;99.512;2023-07-24T00:30:59;100674.09;;;28.75;69.15
36798;BME280;22748;8.426;99.512;2023-07-24T00:33:31;100686.28;;;28.84;69.39
36798;BME280;22748;8.426;99.512;2023-07-24T00:36:13;100685.44;;;28.90;68.88
36798;BME280;22748;8.426;99.512;2023-07-24T00:38:49;100680.47;;;28.87;69.02
36798;BME280;22748;8.426;99.512;2023-07-24T00:41:33;100674.50;;;28.99;68.88
36798;BME280;22748;8.426;99.512;2023-07-24T00:44:09;100673.44;;;29.06;68.80
36798;BME280;22748;8.426;99.512;2023-07-24T00:46:38;100674.69;;;29.04;68.97
36798;BME280;22748;8.426;99.512;2023-07-24T00:49:09;100679.44;;;29.08;69.19
36798;BME280;22748;8.426;99.512;2023-07-24T00:51:39;100681.31;;;29.08;69.32
36798;BME280;22748;8.426;99.512;2023-07-24T00:54:08;100679.06;;;29.11;68.82
36798;BME280;22748;8.426;99.512;2023-07-24T00:56:43;100685.25;;;29.19;68.66
36798;BME280;22748;8.426;99.512;2023-07-24T00:59:14;100688.94;;;29.24;68.80
36798;BME280;22748;8.426;99.512;2023-07-24T01:01:43;100691.63;;;29.31;68.54
36798;BME280;22748;8.426;99.512;2023-07-24T01:04:13;100694.53;;;29.29;69.03
36798;BME280;22748;8.426;99.512;2023-07-24T01:06:42;100703.00;;;29.33;68.85
36798;BME280;22748;8.426;99.512;2023-07-24T01:09:11;100690.78;;;29.37;68.94
36798;BME280;22748;8.426;99.512;2023-07-24T01:11:43;100691.19;;;29.41;68.74
36798;BME280;22748;8.426;99.512;2023-07-24T01:14:19;100696.56;;;29.47;68.82
36798;BME280;22748;8.426;99.512;2023-07-24T01:16:50;100699.03;;;29.49;68.63
36798;BME280;22748;8.426;99.512;2023-07-24T01:19:33;100699.41;;;29.52;68.82
36798;BME280;22748;8.426;99.512;2023-07-24T01:22:12;100691.16;;;29.54;68.84
36798;BME280;22748;8.426;99.512;2023-07-24T01:24:55;100700.25;;;29.60;69.05
36798;BME280;22748;8.426;99.512;2023-07-24T01:27:39;100686.56;;;29.61;68.90
36798;BME280;22748;8.426;99.512;2023-07-24T01:30:16;100683.88;;;29.61;69.03
36798;BME280;22748;8.426;99.512;2023-07-24T01:32:46;100694.22;;;29.64;69.01
36798;BME280;22748;8.426;99.512;2023-07-24T01:35:16;100694.44;;;29.69;68.98
36798;BME280;22748;8.426;99.512;2023-07-24T01:37:51;100692.97;;;29.67;69.14
36798;BME280;22748;8.426;99.512;2023-07-24T01:40:21;100690.28;;;29.73;68.81
36798;BME280;22748;8.426;99.512;2023-07-24T01:43:04;100690.91;;;29.76;69.04
36798;BME280;22748;8.426;99.512;2023-07-24T01:45:40;100695.84;;;29.79;69.53
36798;BME280;22748;8.426;99.512;2023-07-24T01:51:07;100703.84;;;29.92;69.31
36798;BME280;22748;8.426;99.512;2023-07-24T01:53:39;100705.09;;;29.96;68.72
36798;BME280;22748;8.426;99.512;2023-07-24T01:56:08;100704.66;;;29.99;68.77
36798;BME280;22748;8.426;99.512;2023-07-24T01:58:39;100712.91;;;30.04;68.61
36798;BME280;22748;8.426;99.512;2023-07-24T02:01:09;100716.84;;;30.08;68.26
36798;BME280;22748;8.426;99.512;2023-07-24T02:03:39;100719.75;;;30.07;68.29
36798;BME280;22748;8.426;99.512;2023-07-24T02:06:09;100724.09;;;30.08;68.17
36798;BME280;22748;8.426;99.512;2023-07-24T02:08:39;100729.88;;;30.11;67.58
36798;BME280;22748;8.426;99.512;2023-07-24T02:11:14;100720.31;;;30.15;67.80
36798;BME280;22748;8.426;99.512;2023-07-24T02:13:46;100724.84;;;30.22;67.03
36798;BME280;22748;8.426;99.512;2023-07-24T02:16:15;100716.94;;;30.27;67.39
36798;BME280;22748;8.426;99.512;2023-07-24T02:18:47;100717.78;;;30.34;67.02
36798;BME280;22748;8.426;99.512;2023-07-24T02:21:17;100719.00;;;30.38;67.13
36798;BME280;22748;8.426;99.512;2023-07-24T02:23:47;100710.66;;;30.40;66.89
36798;BME280;22748;8.426;99.512;2023-07-24T02:26:16;100713.16;;;30.41;66.81
36798;BME280;22748;8.426;99.512;2023-07-24T02:28:48;100732.63;;;30.43;66.78
36798;BME280;22748;8.426;99.512;2023-07-24T02:31:19;100723.50;;;30.44;66.38
36798;BME280;22748;8.426;99.512;2023-07-24T02:33:49;100727.41;;;30.48;66.66
36798;BME280;22748;8.426;99.512;2023-07-24T02:36:19;100738.78;;;30.50;66.54
36798;BME280;22748;8.426;99.512;2023-07-24T02:38:49;100736.50;;;30.54;66.27
36798;BME280;22748;8.426;99.512;2023-07-24T02:41:19;100742.09;;;30.52;65.64
36798;BME280;22748;8.426;99.512;2023-07-24T02:43:56;100734.19;;;30.58;65.92
36798;BME280;22748;8.426;99.512;2023-07-24T02:46:26;100746.78;;;30.64;65.76
36798;BME280;22748;8.426;99.512;2023-07-24T02:48:58;100734.38;;;30.63;65.52
36798;BME280;22748;8.426;99.512;2023-07-24T02:51:27;100744.69;;;30.66;65.83
36798;BME280;22748;8.426;99.512;2023-07-24T02:53:57;100744.28;;;30.69;65.80
36798;BME280;22748;8.426;99.512;2023-07-24T02:56:28;100741.59;;;30.69;65.67
36798;BME280;22748;8.426;99.512;2023-07-24T02:59:00;100741.13;;;30.72;65.31
36798;BME280;22748;8.426;99.512;2023-07-24T03:01:30;100734.88;;;30.78;65.18
36798;BME280;22748;8.426;99.512;2023-07-24T03:04:00;100725.09;;;30.84;65.23
36798;BME280;22748;8.426;99.512;2023-07-24T03:06:32;100727.53;;;30.85;65.21
36798;BME280;22748;8.426;99.512;2023-07-24T03:09:02;100726.53;;;30.86;65.08
36798;BME280;22748;8.426;99.512;2023-07-24T03:11:38;100719.47;;;30.85;64.65
36798;BME280;22748;8.426;99.512;2023-07-24T03:14:16;100723.84;;;30.86;64.68
36798;BME280;22748;8.426;99.512;2023-07-24T03:16:51;100710.72;;;30.90;64.75
36798;BME280;22748;8.426;99.512;2023-07-24T03:19:25;100716.53;;;30.93;64.61
36798;BME280;22748;8.426;99.512;2023-07-24T03:21:55;100730.00;;;30.93;65.01
36798;BME280;22748;8.426;99.512;2023-07-24T03:24:30;100717.34;;;30.94;64.70
36798;BME280;22748;8.426;99.512;2023-07-24T03:27:01;100719.81;;;30.95;63.81
36798;BME280;22748;8.426;99.512;2023-07-24T03:29:33;100716.66;;;30.99;63.62
36798;BME280;22748;8.426;99.512;2023-07-24T03:32:04;100717.06;;;31.02;64.05
36798;BME280;22748;8.426;99.512;2023-07-24T03:34:39;100713.91;;;31.05;63.85
36798;BME280;22748;8.426;99.512;2023-07-24T03:37:14;100712.06;;;31.06;63.55
36798;BME280;22748;8.426;99.512;2023-07-24T03:39:44;100711.81;;;31.07;63.51
36798;BME280;22748;8.426;99.512;2023-07-24T03:42:23;100711.75;;;31.14;63.68
36798;BME280;22748;8.426;99.512;2023-07-24T03:44:57;100711.13;;;31.19;63.81
36798;BME280;22748;8.426;99.512;2023-07-24T03:47:26;100710.19;;;31.25;63.51
36798;BME280;22748;8.426;99.512;2023-07-24T03:49:57;100702.94;;;31.25;63.61
36798;BME280;22748;8.426;99.512;2023-07-24T03:52:26;100702.56;;;31.22;63.93
36798;BME280;22748;8.426;99.512;2023-07-24T03:54:55;100696.78;;;31.18;63.86
36798;BME280;22748;8.426;99.512;2023-07-24T03:57:25;100688.31;;;31.14;63.98
36798;BME280;22748;8.426;99.512;2023-07-24T03:59:59;100685.97;;;31.18;63.78
36798;BME280;22748;8.426;99.512;2023-07-24T04:02:29;100683.47;;;31.23;63.63
36798;BME280;22748;8.426;99.512;2023-07-24T04:04:59;100680.09;;;31.28;63.38
36798;BME280;22748;8.426;99.512;2023-07-24T04:07:28;100679.28;;;31.27;63.64
36798;BME280;22748;8.426;99.512;2023-07-24T04:09:59;100665.91;;;31.32;63.00
36798;BME280;22748;8.426;99.512;2023-07-24T04:12:29;100674.34;;;31.43;62.79
36798;BME280;22748;8.426;99.512;2023-07-24T04:15:07;100667.47;;;31.47;63.02
36798;BME280;22748;8.426;99.512;2023-07-24T04:17:42;100669.47;;;31.51;62.47
36798;BME280;22748;8.426;99.512;2023-07-24T04:20:25;100674.63;;;31.53;62.02
36798;BME280;22748;8.426;99.512;2023-07-24T04:22:54;100665.28;;;31.55;61.86
36798;BME280;22748;8.426;99.512;2023-07-24T04:25:24;100664.00;;;31.58;61.44
36798;BME280;22748;8.426;99.512;2023-07-24T04:27:59;100661.91;;;31.60;61.64
36798;BME280;22748;8.426;99.512;2023-07-24T04:30:42;100650.19;;;31.66;61.74
36798;BME280;22748;8.426;99.512;2023-07-24T04:33:16;100642.66;;;31.68;61.48
36798;BME280;22748;8.426;99.512;2023-07-24T04:35:47;100643.84;;;31.72;60.99
36798;BME280;22748;8.426;99.512;2023-07-24T04:38:29;100642.94;;;31.78;60.60
36798;BME280;22748;8.426;99.512;2023-07-24T04:41:00;100626.31;;;31.82;60.64
36798;BME280;22748;8.426;99.512;2023-07-24T04:43:36;100631.25;;;31.85;61.02
36798;BME280;22748;8.426;99.512;2023-07-24T04:46:14;100633.34;;;31.83;60.93
36798;BME280;22748;8.426;99.512;2023-07-24T04:48:45;100627.56;;;31.79;59.88
36798;BME280;22748;8.426;99.512;2023-07-24T04:51:15;100627.81;;;31.77;60.39
36798;BME280;22748;8.426;99.512;2023-07-24T04:53:57;100623.00;;;31.80;60.75
36798;BME280;22748;8.426;99.512;2023-07-24T04:56:28;100618.34;;;31.87;60.40
36798;BME280;22748;8.426;99.512;2023-07-24T04:59:09;100611.41;;;31.91;59.84
36798;BME280;22748;8.426;99.512;2023-07-24T05:01:47;100616.44;;;31.87;60.34
36798;BME280;22748;8.426;99.512;2023-07-24T05:04:29;100619.97;;;31.88;59.89
36798;BME280;22748;8.426;99.512;2023-07-24T05:07:14;100619.16;;;31.87;60.20
36798;BME280;22748;8.426;99.512;2023-07-24T05:09:43;100630.03;;;31.81;60.55
36798;BME280;22748;8.426;99.512;2023-07-24T05:12:13;100650.22;;;31.78;60.33
36798;BME280;22748;8.426;99.512;2023-07-24T05:14:43;100635.00;;;31.84;60.72
36798;BME280;22748;8.426;99.512;2023-07-24T05:17:25;100645.53;;;31.73;61.39
36798;BME280;22748;8.426;99.512;2023-07-24T05:19:56;100638.94;;;31.51;62.07
36798;BME280;22748;8.426;99.512;2023-07-24T05:22:25;100634.75;;;31.36;62.66
36798;BME280;22748;8.426;99.512;2023-07-24T05:24:54;100623.22;;;31.29;62.71
36798;BME280;22748;8.426;99.512;2023-07-24T05:27:23;100617.03;;;31.22;63.56
36798;BME280;22748;8.426;99.512;2023-07-24T05:29:52;100616.69;;;31.19;63.90
36798;BME280;22748;8.426;99.512;2023-07-24T05:32:23;100618.31;;;31.20;63.99
36798;BME280;22748;8.426;99.512;2023-07-24T05:34:53;100610.44;;;31.18;64.28
36798;BME280;22748;8.426;99.512;2023-07-24T05:37:22;100604.84;;;31.20;63.91
36798;BME280;22748;8.426;99.512;2023-07-24T05:39:51;100595.03;;;31.25;64.45
36798;BME280;22748;8.426;99.512;2023-07-24T05:42:21;100609.94;;;31.28;64.92
36798;BME280;22748;8.426;99.512;2023-07-24T05:44:51;100617.34;;;31.32;64.49
36798;BME280;22748;8.426;99.512;2023-07-24T05:47:20;100631.44;;;31.34;64.83
36798;BME280;22748;8.426;99.512;2023-07-24T05:49:52;100632.63;;;31.39;64.68
36798;BME280;22748;8.426;99.512;2023-07-24T05:52:22;100632.56;;;31.27;64.00
36798;BME280;22748;8.426;99.512;2023-07-24T05:54:51;100641.94;;;31.06;63.57
36798;BME280;22748;8.426;99.512;2023-07-24T05:57:21;100663.72;;;31.04;63.80
36798;BME280;22748;8.426;99.512;2023-07-24T05:59:51;100682.47;;;30.99;63.69
36798;BME280;22748;8.426;99.512;2023-07-24T06:02:21;100684.16;;;30.93;63.86
36798;BME280;22748;8.426;99.512;2023-07-24T06:04:53;100674.69;;;30.84;63.82
36798;BME280;22748;8.426;99.512;2023-07-24T06:07:23;100647.53;;;30.79;63.87
36798;BME280;22748;8.426;99.512;2023-07-24T06:09:52;100623.94;;;30.74;63.97
36798;BME280;22748;8.426;99.512;2023-07-24T06:12:22;100612.94;;;30.76;64.14
36798;BME280;22748;8.426;99.512;2023-07-24T06:14:52;100605.59;;;30.65;64.11
36798;BME280;22748;8.426;99.512;2023-07-24T06:17:21;100610.22;;;30.58;64.59
36798;BME280;22748;8.426;99.512;2023-07-24T06:20:03;100605.19;;;30.61;65.06
36798;BME280;22748;8.426;99.512;2023-07-24T06:22:32;100602.28;;;30.63;65.08
36798;BME280;22748;8.426;99.512;2023-07-24T06:25:02;100601.22;;;30.64;65.02
36798;BME280;22748;8.426;99.512;2023-07-24T06:27:32;100609.16;;;30.59;65.27
36798;BME280;22748;8.426;99.512;2023-07-24T06:30:02;100619.66;;;30.67;65.10
36798;BME280;22748;8.426;99.512;2023-07-24T06:32:33;100621.91;;;30.70;65.33
36798;BME280;22748;8.426;99.512;2023-07-24T06:35:04;100611.94;;;30.70;65.30
36798;BME280;22748;8.426;99.512;2023-07-24T06:37:33;100603.50;;;30.67;65.39
36798;BME280;22748;8.426;99.512;2023-07-24T06:40:03;100594.41;;;30.61;65.82
36798;BME280;22748;8.426;99.512;2023-07-24T06:42:33;100596.91;;;30.63;65.46
36798;BME280;22748;8.426;99.512;2023-07-24T06:45:02;100593.72;;;30.47;65.79
36798;BME280;22748;8.426;99.512;2023-07-24T06:47:35;100589.22;;;30.41;66.04
36798;BME280;22748;8.426;99.512;2023-07-24T06:50:06;100593.06;;;30.20;67.04
36798;BME280;22748;8.426;99.512;2023-07-24T06:52:35;100600.84;;;30.35;66.28
36798;BME280;22748;8.426;99.512;2023-07-24T06:55:05;100593.56;;;30.42;66.74
36798;BME280;22748;8.426;99.512;2023-07-24T06:57:34;100600.75;;;30.48;66.59
36798;BME280;22748;8.426;99.512;2023-07-24T07:00:03;100591.19;;;30.52;66.15
36798;BME280;22748;8.426;99.512;2023-07-24T07:02:35;100596.16;;;30.55;66.11
36798;BME280;22748;8.426;99.512;2023-07-24T07:05:07;100585.03;;;30.45;66.20
36798;BME280;22748;8.426;99.512;2023-07-24T07:07:37;100574.31;;;30.39;66.56
36798;BME280;22748;8.426;99.512;2023-07-24T07:10:06;100571.41;;;30.40;66.40
36798;BME280;22748;8.426;99.512;2023-07-24T07:12:35;100567.03;;;30.39;66.50
36798;BME280;22748;8.426;99.512;2023-07-24T07:15:05;100567.03;;;30.39;66.08
36798;BME280;22748;8.426;99.512;2023-07-24T07:17:35;100567.66;;;30.41;66.29
36798;BME280;22748;8.426;99.512;2023-07-24T07:20:07;100558.53;;;30.42;66.61
36798;BME280;22748;8.426;99.512;2023-07-24T07:22:50;100562.19;;;30.48;66.33
36798;BME280;22748;8.426;99.512;2023-07-24T07:25:20;100556.59;;;30.49;66.36
36798;BME280;22748;8.426;99.512;2023-07-24T07:27:50;100552.84;;;30.50;66.38
36798;BME280;22748;8.426;99.512;2023-07-24T07:30:20;100551.81;;;30.51;66.31
36798;BME280;22748;8.426;99.512;2023-07-24T07:32:51;100551.75;;;30.58;66.52
36798;BME280;22748;8.426;99.512;2023-07-24T07:35:23;100541.84;;;30.52;66.92
36798;BME280;22748;8.426;99.512;2023-07-24T07:37:53;100534.38;;;30.54;66.40
36798;BME280;22748;8.426;99.512;2023-07-24T07:40:22;100539.31;;;30.57;66.40
36798;BME280;22748;8.426;99.512;2023-07-24T07:42:53;100528.97;;;30.54;67.20
36798;BME280;22748;8.426;99.512;2023-07-24T07:45:22;100517.13;;;30.55;67.01
36798;BME280;22748;8.426;99.512;2023-07-24T07:47:51;100515.66;;;30.59;66.44
36798;BME280;22748;8.426;99.512;2023-07-24T07:50:22;100519.75;;;30.62;66.51
36798;BME280;22748;8.426;99.512;2023-07-24T07:52:52;100519.63;;;30.57;66.66
36798;BME280;22748;8.426;99.512;2023-07-24T07:55:21;100521.88;;;30.60;66.96
36798;BME280;22748;8.426;99.512;2023-07-24T07:57:50;100517.44;;;30.47;65.94
36798;BME280;22748;8.426;99.512;2023-07-24T08:00:20;100509.91;;;30.55;66.45
36798;BME280;22748;8.426;99.512;2023-07-24T08:02:50;100506.75;;;30.59;67.05
36798;BME280;22748;8.426;99.512;2023-07-24T08:05:25;100504.44;;;30.62;66.91
36798;BME280;22748;8.426;99.512;2023-07-24T08:07:54;100488.63;;;30.66;66.28
36798;BME280;22748;8.426;99.512;2023-07-24T08:10:23;100498.81;;;30.64;65.88
36798;BME280;22748;8.426;99.512;2023-07-24T08:12:53;100484.16;;;30.60;66.38
36798;BME280;22748;8.426;99.512;2023-07-24T08:15:22;100483.09;;;30.61;66.01
36798;BME280;22748;8.426;99.512;2023-07-24T08:17:52;100477.69;;;30.61;65.82
36798;BME280;22748;8.426;99.512;2023-07-24T08:20:21;100477.69;;;30.61;65.80
36798;BME280;22748;8.426;99.512;2023-07-24T08:22:52;100479.56;;;30.60;65.73
36798;BME280;22748;8.426;99.512;2023-07-24T08:25:22;100475.81;;;30.61;65.91
36798;BME280;22748;8.426;99.512;2023-07-24T08:27:52;100475.16;;;30.66;65.97
36798;BME280;22748;8.426;99.512;2023-07-24T08:30:21;100467.44;;;30.69;65.78
36798;BME280;22748;8.426;99.512;2023-07-24T08:32:51;100467.97;;;30.60;66.06
36798;BME280;22748;8.426;99.512;2023-07-24T08:35:21;100463.75;;;30.64;65.89
36798;BME280;22748;8.426;99.512;2023-07-24T08:37:54;100459.13;;;30.52;66.02
36798;BME280;22748;8.426;99.512;2023-07-24T08:40:28;100465.72;;;30.57;65.69
36798;BME280;22748;8.426;99.512;2023-07-24T08:42:58;100461.00;;;30.52;65.82
36798;BME280;22748;8.426;99.512;2023-07-24T08:45:30;100466.19;;;30.53;66.02
36798;BME280;22748;8.426;99.512;2023-07-24T08:48:01;100468.88;;;30.53;66.28
36798;BME280;22748;8.426;99.512;2023-07-24T08:50:31;100466.31;;;30.59;66.39
36798;BME280;22748;8.426;99.512;2023-07-24T08:53:02;100458.69;;;30.55;66.92
36798;BME280;22748;8.426;99.512;2023-07-24T08:55:33;100456.13;;;30.61;66.76
36798;BME280;22748;8.426;99.512;2023-07-24T08:58:03;100457.13;;;30.66;66.45
36798;BME280;22748;8.426;99.512;2023-07-24T09:00:36;100457.72;;;30.68;66.22
36798;BME280;22748;8.426;99.512;2023-07-24T09:03:05;100464.88;;;30.74;66.01
36798;BME280;22748;8.426;99.512;2023-07-24T09:05:36;100463.63;;;30.77;65.95
36798;BME280;22748;8.426;99.512;2023-07-24T09:08:08;100458.16;;;30.84;66.07
36798;BME280;22748;8.426;99.512;2023-07-24T09:10:37;100457.25;;;30.90;65.54
36798;BME280;22748;8.426;99.512;2023-07-24T09:13:08;100449.16;;;30.90;65.05
36798;BME280;22748;8.426;99.512;2023-07-24T09:15:41;100453.16;;;30.87;65.04
36798;BME280;22748;8.426;99.512;2023-07-24T09:18:11;100447.31;;;30.90;64.85
36798;BME280;22748;8.426;99.512;2023-07-24T09:20:40;100442.75;;;30.91;64.88
36798;BME280;22748;8.426;99.512;2023-07-24T09:23:11;100424.91;;;30.90;65.06
36798;BME280;22748;8.426;99.512;2023-07-24T09:25:41;100423.66;;;30.92;64.85
36798;BME280;22748;8.426;99.512;2023-07-24T09:28:11;100426.94;;;30.94;64.76
36798;BME280;22748;8.426;99.512;2023-07-24T09:30:40;100424.81;;;30.96;64.69
36798;BME280;22748;8.426;99.512;2023-07-24T09:33:10;100426.47;;;30.98;65.05
36798;BME280;22748;8.426;99.512;2023-07-24T09:35:43;100442.19;;;31.01;64.86
36798;BME280;22748;8.426;99.512;2023-07-24T09:38:13;100423.31;;;31.01;64.87
36798;BME280;22748;8.426;99.512;2023-07-24T09:40:43;100421.47;;;31.01;65.32
36798;BME280;22748;8.426;99.512;2023-07-24T09:43:17;100400.69;;;31.02;65.29
36798;BME280;22748;8.426;99.512;2023-07-24T09:45:48;100402.78;;;31.00;65.45
36798;BME280;22748;8.426;99.512;2023-07-24T09:48:19;100416.88;;;31.02;65.66
36798;BME280;22748;8.426;99.512;2023-07-24T09:50:49;100416.41;;;31.05;65.23
36798;BME280;22748;8.426;99.512;2023-07-24T09:53:21;100418.06;;;31.06;64.79
36798;BME280;22748;8.426;99.512;2023-07-24T09:55:52;100416.88;;;31.02;65.32
36798;BME280;22748;8.426;99.512;2023-07-24T09:58:24;100418.06;;;31.06;65.24
36798;BME280;22748;8.426;99.512;2023-07-24T10:00:54;100427.78;;;31.07;65.13
36798;BME280;22748;8.426;99.512;2023-07-24T10:03:26;100418.28;;;31.04;64.89
36798;BME280;22748;8.426;99.512;2023-07-24T10:05:56;100417.47;;;31.04;64.58
36798;BME280;22748;8.426;99.512;2023-07-24T10:08:27;100430.97;;;31.04;64.54
36798;BME280;22748;8.426;99.512;2023-07-24T10:10:56;100433.50;;;30.99;65.02
36798;BME280;22748;8.426;99.512;2023-07-24T10:13:25;100442.06;;;30.95;65.03
36798;BME280;22748;8.426;99.512;2023-07-24T10:15:54;100450.53;;;30.99;64.74
36798;BME280;22748;8.426;99.512;2023-07-24T10:18:29;100452.16;;;31.00;65.25
36798;BME280;22748;8.426;99.512;2023-07-24T10:21:02;100450.28;;;31.01;64.86
36798;BME280;22748;8.426;99.512;2023-07-24T10:23:33;100456.72;;;31.00;64.93
36798;BME280;22748;8.426;99.512;2023-07-24T10:26:03;100462.13;;;31.00;64.91
36798;BME280;22748;8.426;99.512;2023-07-24T10:28:32;100476.22;;;31.02;65.19
36798;BME280;22748;8.426;99.512;2023-07-24T10:31:04;100477.25;;;31.01;65.01
36798;BME280;22748;8.426;99.512;2023-07-24T10:33:36;100483.09;;;30.98;64.92
36798;BME280;22748;8.426;99.512;2023-07-24T10:36:07;100486.63;;;30.98;64.88
36798;BME280;22748;8.426;99.512;2023-07-24T10:38:42;100477.56;;;30.92;65.54
36798;BME280;22748;8.426;99.512;2023-07-24T10:41:12;100492.69;;;30.93;64.95
36798;BME280;22748;8.426;99.512;2023-07-24T10:43:43;100492.97;;;30.85;64.95
36798;BME280;22748;8.426;99.512;2023-07-24T10:46:13;100485.94;;;30.84;65.04
36798;BME280;22748;8.426;99.512;2023-07-24T10:48:44;100487.28;;;30.75;65.46
36798;BME280;22748;8.426;99.512;2023-07-24T10:51:14;100486.91;;;30.71;65.45
36798;BME280;22748;8.426;99.512;2023-07-24T10:53:46;100482.34;;;30.72;65.37
36798;BME280;22748;8.426;99.512;2023-07-24T10:56:17;100488.94;;;30.76;65.69
36798;BME280;22748;8.426;99.512;2023-07-24T10:58:47;100492.44;;;30.76;66.31
36798;BME280;22748;8.426;99.512;2023-07-24T11:01:17;100485.19;;;30.77;66.16
36798;BME280;22748;8.426;99.512;2023-07-24T11:03:46;100490.59;;;30.77;66.07
36798;BME280;22748;8.426;99.512;2023-07-24T11:06:16;100486.84;;;30.78;66.04
36798;BME280;22748;8.426;99.512;2023-07-24T11:08:53;100496.34;;;30.81;65.98
36798;BME280;22748;8.426;99.512;2023-07-24T11:11:28;100497.16;;;30.81;66.51
36798;BME280;22748;8.426;99.512;2023-07-24T11:13:57;100493.84;;;30.79;66.47
36798;BME280;22748;8.426;99.512;2023-07-24T11:16:28;100490.13;;;30.80;66.12
36798;BME280;22748;8.426;99.512;2023-07-24T11:19:00;100489.41;;;30.73;66.69
36798;BME280;22748;8.426;99.512;2023-07-24T11:21:30;100492.69;;;30.75;66.43
36798;BME280;22748;8.426;99.512;2023-07-24T11:24:05;100490.59;;;30.77;66.50
36798;BME280;22748;8.426;99.512;2023-07-24T11:26:35;100499.25;;;30.79;66.62
36798;BME280;22748;8.426;99.512;2023-07-24T11:29:10;100505.91;;;30.76;66.27
36798;BME280;22748;8.426;99.512;2023-07-24T11:31:39;100509.47;;;30.77;66.54
36798;BME280;22748;8.426;99.512;2023-07-24T11:34:10;100511.69;;;30.80;66.25
36798;BME280;22748;8.426;99.512;2023-07-24T11:36:40;100516.63;;;30.83;66.67
36798;BME280;22748;8.426;99.512;2023-07-24T11:39:23;100520.00;;;30.79;66.63
36798;BME280;22748;8.426;99.512;2023-07-24T11:41:53;100523.75;;;30.78;66.54
36798;BME280;22748;8.426;99.512;2023-07-24T11:44:26;100525.19;;;30.80;66.71
36798;BME280;22748;8.426;99.512;2023-07-24T11:47:11;100527.88;;;30.80;66.79
36798;BME280;22748;8.426;99.512;2023-07-24T11:49:41;100520.81;;;30.79;66.96
36798;BME280;22748;8.426;99.512;2023-07-24T11:52:15;100526.22;;;30.79;66.86
36798;BME280;22748;8.426;99.512;2023-07-24T11:54:47;100518.13;;;30.79;66.88
36798;BME280;22748;8.426;99.512;2023-07-24T11:57:28;100521.88;;;30.78;66.84
36798;BME280;22748;8.426;99.512;2023-07-24T11:59:58;100518.38;;;30.78;67.51
36798;BME280;22748;8.426;99.512;2023-07-24T12:02:28;100522.94;;;30.77;67.32
36798;BME280;22748;8.426;99.512;2023-07-24T12:04:58;100525.47;;;30.72;67.30
36798;BME280;22748;8.426;99.512;2023-07-24T12:07:42;100524.66;;;30.71;67.31
36798;BME280;22748;8.426;99.512;2023-07-24T12:10:24;100529.22;;;30.71;67.32
36798;BME280;22748;8.426;99.512;2023-07-24T12:12:58;100535.22;;;30.73;67.22
36798;BME280;22748;8.426;99.512;2023-07-24T12:15:27;100539.56;;;30.74;67.22
36798;BME280;22748;8.426;99.512;2023-07-24T12:17:56;100547.63;;;30.74;67.40
36798;BME280;22748;8.426;99.512;2023-07-24T12:20:26;100553.63;;;30.76;67.48
36798;BME280;22748;8.426;99.512;2023-07-24T12:22:56;100546.16;;;30.78;67.54
36798;BME280;22748;8.426;99.512;2023-07-24T12:25:27;100541.56;;;30.79;67.54
36798;BME280;22748;8.426;99.512;2023-07-24T12:27:56;100551.06;;;30.81;67.14
36798;BME280;22748;8.426;99.512;2023-07-24T12:30:27;100552.94;;;30.81;67.43
36798;BME280;22748;8.426;99.512;2023-07-24T12:32:56;100548.84;;;30.78;67.08
36798;BME280;22748;8.426;99.512;2023-07-24T12:35:25;100556.31;;;30.76;67.37
36798;BME280;22748;8.426;99.512;2023-07-24T12:37:55;100561.13;;;30.74;67.51
36798;BME280;22748;8.426;99.512;2023-07-24T12:40:27;100562.38;;;30.71;67.66
36798;BME280;22748;8.426;99.512;2023-07-24T12:42:56;100569.66;;;30.71;67.83
36798;BME280;22748;8.426;99.512;2023-07-24T12:45:26;100567.78;;;30.71;67.59
36798;BME280;22748;8.426;99.512;2023-07-24T12:47:56;100583.75;;;30.73;67.61
36798;BME280;22748;8.426;99.512;2023-07-24T12:50:25;100578.78;;;30.70;67.66
36798;BME280;22748;8.426;99.512;2023-07-24T12:52:54;100586.88;;;30.70;67.72
36798;BME280;22748;8.426;99.512;2023-07-24T12:55:23;100580.44;;;30.71;67.99
36798;BME280;22748;8.426;99.512;2023-07-24T12:57:57;100582.06;;;30.72;67.57
36798;BME280;22748;8.426;99.512;2023-07-24T13:00:28;100590.16;;;30.72;67.93
36798;BME280;22748;8.426;99.512;2023-07-24T13:03:07;100594.94;;;30.70;68.00
36798;BME280;22748;8.426;99.512;2023-07-24T13:05:37;100596.63;;;30.71;67.69
36798;BME280;22748;8.426;99.512;2023-07-24T13:08:06;100598.25;;;30.72;67.83
36798;BME280;22748;8.426;99.512;2023-07-24T13:10:40;100601.16;;;30.70;67.93
36798;BME280;22748;8.426;99.512;2023-07-24T13:13:13;100608.44;;;30.70;67.91
36798;BME280;22748;8.426;99.512;2023-07-24T13:15:47;100612.19;;;30.69;67.85
36798;BME280;22748;8.426;99.512;2023-07-24T13:18:19;100610.91;;;30.71;67.96